Time;durP1;ratioP1;P1;durP2;ratioP2;P2;SDS_P1;SDS_P2;PMS_P1;PMS_P2;Temp;Humidity;BMP_temperature;BMP_pressure;BME280_temperature;BME280_humidity;BME280_pressure;Samples;Min_cycle;Max_cycle;Signal;HPM_P1;HPM_P2
2022/08/19 00:01:59;;;;;;;12.90;8.65;;;;;;;23.36;59.64;99501.84;2054477;85;21077;-73
2022/08/19 00:05:01;;;;;;;10.88;8.65;;;;;;;23.27;59.84;99501.55;2018092;87;21107;-75
2022/08/19 00:08:03;;;;;;;9.98;8.45;;;;;;;23.21;59.95;99507.22;2016718;87;21092;-73
2022/08/19 00:11:04;;;;;;;10.32;8.45;;;;;;;23.16;60.03;99506.64;2034891;86;21021;-72
2022/08/19 00:14:09;;;;;;;10.28;8.03;;;;;;;23.12;60.18;99503.39;2038327;86;21060;-73
2022/08/19 00:17:10;;;;;;;10.38;8.25;;;;;;;23.07;60.35;99500.12;1984787;88;21088;-72
2022/08/19 00:20:19;;;;;;;9.35;8.15;;;;;;;23.02;60.59;99499.55;2035544;86;21022;-73
2022/08/19 00:23:19;;;;;;;11.15;8.55;;;;;;;22.97;60.74;99493.30;1981264;89;21015;-72
2022/08/19 00:26:21;;;;;;;12.13;8.65;;;;;;;22.89;61.00;99487.00;1984613;88;21000;-73
2022/08/19 00:29:24;;;;;;;10.15;8.83;;;;;;;22.81;61.04;99482.93;2032189;86;21104;-73
2022/08/19 00:32:25;;;;;;;10.20;7.92;;;;;;;22.76;61.23;99478.30;2037474;86;21500;-72
2022/08/19 00:35:27;;;;;;;12.65;8.83;;;;;;;22.68;61.47;99469.33;2043923;86;21060;-72
2022/08/19 00:38:28;;;;;;;11.73;8.75;;;;;;;22.62;61.42;99479.84;2041342;86;21037;-72
2022/08/19 00:41:30;;;;;;;11.73;9.33;;;;;;;22.56;61.49;99471.43;2041187;86;21174;-72
2022/08/19 00:44:31;;;;;;;9.93;8.73;;;;;;;22.51;61.67;99460.58;2036802;86;21061;-72
2022/08/19 00:47:32;;;;;;;9.80;8.80;;;;;;;22.45;61.74;99451.63;2040244;86;21057;-72
2022/08/19 00:50:35;;;;;;;9.95;8.95;;;;;;;22.38;61.89;99445.11;2037399;86;21001;-72
2022/08/19 00:53:36;;;;;;;11.22;9.33;;;;;;;22.33;62.04;99449.12;2039977;86;21057;-72
2022/08/19 00:56:37;;;;;;;9.10;7.97;;;;;;;22.31;62.19;99447.75;2039889;86;22178;-72
2022/08/19 00:59:43;;;;;;;13.65;8.53;;;;;;;22.27;62.23;99447.47;2038147;86;23081;-72
2022/08/19 01:02:45;;;;;;;10.93;8.48;;;;;;;22.24;62.22;99445.26;2043922;83;21082;-72
2022/08/19 01:05:50;;;;;;;8.85;7.60;;;;;;;22.20;62.30;99440.11;2050414;85;21545;-72
2022/08/19 01:08:51;;;;;;;9.10;8.18;;;;;;;22.16;62.44;99425.47;2054245;85;21037;-72
2022/08/19 01:11:53;;;;;;;9.98;8.98;;;;;;;22.11;62.51;99434.89;2050403;85;21030;-72
2022/08/19 01:14:55;;;;;;;10.32;9.20;;;;;;;22.12;62.53;99441.91;2058056;85;21036;-72
2022/08/19 01:18:03;;;;;;;12.23;9.08;;;;;;;22.09;62.60;99434.33;2052486;85;20984;-72
2022/08/19 01:21:24;;;;;;;11.57;8.73;;;;;;;22.07;62.69;99429.70;2051906;85;21138;-72
2022/08/19 01:24:25;;;;;;;10.30;8.03;;;;;;;22.05;62.78;99421.07;2053765;85;21080;-73
2022/08/19 01:27:28;;;;;;;9.80;8.40;;;;;;;22.01;62.94;99423.99;2053233;85;21087;-73
2022/08/19 01:30:36;;;;;;;9.45;8.30;;;;;;;21.97;63.01;99414.25;2038958;85;21041;-73
2022/08/19 01:33:36;;;;;;;10.48;8.98;;;;;;;21.99;63.03;99421.57;2056827;85;21375;-73
2022/08/19 01:36:46;;;;;;;9.38;8.33;;;;;;;22.03;63.15;99427.26;2056426;85;21054;-73
2022/08/19 01:39:46;;;;;;;9.33;8.28;;;;;;;21.99;63.18;99416.68;2051856;85;21050;-73
2022/08/19 01:42:49;;;;;;;13.35;8.83;;;;;;;21.97;63.52;99414.25;2054061;85;21543;-75
2022/08/19 01:45:50;;;;;;;10.18;8.95;;;;;;;21.96;63.68;99415.30;2053168;85;21046;-73
2022/08/19 01:48:51;;;;;;;10.93;9.28;;;;;;;21.87;63.76;99410.92;2056432;85;20963;-72
2022/08/19 01:51:53;;;;;;;10.15;8.88;;;;;;;21.80;64.00;99397.38;2049690;85;21037;-73
2022/08/19 01:54:54;;;;;;;11.73;8.68;;;;;;;21.76;64.03;99388.16;2052842;85;21010;-72
2022/08/19 01:58:00;;;;;;;10.90;9.25;;;;;;;21.69;64.17;99388.38;2055445;85;21358;-73
2022/08/19 02:01:03;;;;;;;12.47;9.30;;;;;;;21.65;64.31;99394.00;2012809;87;21500;-72
2022/08/19 02:04:05;;;;;;;10.65;9.23;;;;;;;21.64;64.52;99392.38;2048528;85;20975;-72
2022/08/19 02:07:08;;;;;;;11.97;9.78;;;;;;;21.60;64.62;99390.73;2013233;87;21101;-73
2022/08/19 02:10:14;;;;;;;10.30;9.15;;;;;;;21.56;64.92;99384.20;2052171;85;21077;-74
2022/08/19 02:13:16;;;;;;;12.88;9.83;;;;;;;21.48;65.32;99373.37;2055197;85;21109;-72
2022/08/19 02:16:19;;;;;;;11.50;9.50;;;;;;;21.46;65.50;99376.84;2051708;85;21568;-75
2022/08/19 02:19:20;;;;;;;11.70;9.30;;;;;;;21.43;65.90;99377.36;2050125;86;21067;-72
2022/08/19 02:22:21;;;;;;;14.15;9.43;;;;;;;21.42;65.98;99382.46;2048904;86;21616;-73
2022/08/19 02:25:22;;;;;;;11.18;9.93;;;;;;;21.42;66.12;99372.20;2052394;85;21708;-72
2022/08/19 02:28:23;;;;;;;10.72;9.58;;;;;;;21.42;66.29;99378.41;2050861;85;21053;-72
2022/08/19 02:31:25;;;;;;;10.78;9.58;;;;;;;21.41;66.30;99370.05;2049662;86;21378;-73
2022/08/19 02:34:26;;;;;;;14.25;10.23;;;;;;;21.38;66.36;99366.52;2049106;86;21130;-72
2022/08/19 02:40:54;;;;;;;16.75;10.15;;;;;;;21.34;66.43;99359.14;2047038;85;22092;-74
2022/08/19 02:43:57;;;;;;;11.68;9.73;;;;;;;21.33;66.68;99369.67;2053782;86;21104;-73
2022/08/19 02:46:59;;;;;;;11.55;10.35;;;;;;;21.26;67.01;99365.30;2057183;85;21018;-73
2022/08/19 02:50:02;;;;;;;11.65;9.68;;;;;;;21.22;66.87;99356.61;2047514;85;22288;-73
2022/08/19 02:53:03;;;;;;;13.65;9.83;;;;;;;21.19;67.12;99350.38;2052931;85;21547;-73
2022/08/19 02:56:07;;;;;;;14.25;10.72;;;;;;;21.14;67.38;99350.33;2051136;85;20988;-73
2022/08/19 02:59:09;;;;;;;12.18;10.82;;;;;;;21.09;67.34;99355.66;2049830;85;21089;-73
2022/08/19 03:02:10;;;;;;;13.98;10.32;;;;;;;21.04;67.37;99361.84;2047947;86;21027;-73
2022/08/19 03:05:11;;;;;;;14.68;11.20;;;;;;;21.01;67.48;99368.55;2050423;86;21190;-76
2022/08/19 03:08:13;;;;;;;11.78;10.55;;;;;;;20.96;67.59;99365.80;2049683;86;20959;-74
2022/08/19 03:11:22;;;;;;;17.90;10.80;;;;;;;20.95;67.75;99363.37;2051775;86;21069;-73
2022/08/19 03:14:23;;;;;;;17.30;11.05;;;;;;;20.88;67.89;99362.20;2053393;85;21109;-73
2022/08/19 03:17:24;;;;;;;16.00;11.48;;;;;;;20.78;68.08;99351.31;2051881;85;21067;-73
2022/08/19 03:20:25;;;;;;;13.43;10.98;;;;;;;20.70;68.28;99346.37;2046533;85;22336;-72
2022/08/19 03:23:26;;;;;;;12.50;11.28;;;;;;;20.63;68.57;99352.47;2060695;85;20991;-71
2022/08/19 03:26:28;;;;;;;14.07;11.43;;;;;;;20.56;68.76;99362.91;2051016;85;21572;-71
2022/08/19 03:29:31;;;;;;;15.05;12.40;;;;;;;20.54;68.86;99390.63;2057710;85;20999;-72
2022/08/19 03:32:33;;;;;;;12.25;10.98;;;;;;;20.51;69.06;99387.59;2040343;85;21049;-71
2022/08/19 03:35:36;;;;;;;13.65;11.63;;;;;;;20.46;69.14;99396.42;2050062;85;21031;-72
2022/08/19 03:38:46;;;;;;;18.00;11.73;;;;;;;20.47;69.21;99394.53;2048632;86;20994;-71
2022/08/19 03:41:49;;;;;;;15.53;11.48;;;;;;;20.44;69.22;99404.46;2022234;87;21088;-71
2022/08/19 03:44:50;;;;;;;13.62;11.97;;;;;;;20.43;69.38;99400.95;2022926;87;21076;-72
2022/08/19 03:47:52;;;;;;;14.28;11.63;;;;;;;20.40;69.47;99387.98;2020200;87;21130;-72
2022/08/19 03:50:53;;;;;;;15.20;12.25;;;;;;;20.36;69.60;99382.29;2048468;85;21010;-73
2022/08/19 03:53:55;;;;;;;15.45;11.65;;;;;;;20.33;69.62;99383.33;2052394;85;21549;-72
2022/08/19 03:56:57;;;;;;;13.05;11.35;;;;;;;20.34;69.66;99383.06;2050888;85;21843;-72
2022/08/19 03:59:58;;;;;;;15.63;12.30;;;;;;;20.36;69.68;99387.67;2045773;85;21065;-74
2022/08/19 04:03:00;;;;;;;14.47;11.53;;;;;;;20.37;69.75;99395.22;2048671;85;21061;-74
2022/08/19 04:06:21;;;;;;;16.55;11.25;;;;;;;20.39;69.69;99393.11;2062221;85;20984;-73
2022/08/19 04:09:23;;;;;;;13.88;11.78;;;;;;;20.40;69.73;99400.11;2067829;85;21322;-73
2022/08/19 04:12:24;;;;;;;19.30;12.65;;;;;;;20.42;69.75;99404.73;2069684;85;21571;-73
2022/08/19 04:15:25;;;;;;;18.87;12.68;;;;;;;20.40;69.82;99412.23;2068599;85;21030;-72
2022/08/19 04:18:29;;;;;;;17.50;12.13;;;;;;;20.44;69.91;99416.59;2072209;85;21052;-72
2022/08/19 04:21:30;;;;;;;16.80;12.05;;;;;;;20.56;70.02;99415.45;2066181;85;20965;-72
2022/08/19 04:24:31;;;;;;;14.30;11.95;;;;;;;20.71;69.96;99406.75;2065755;85;21058;-71
2022/08/19 04:27:33;;;;;;;17.90;11.97;;;;;;;20.90;69.91;99418.58;2071321;85;20950;-72
2022/08/19 04:30:42;;;;;;;13.38;12.07;;;;;;;21.10;69.83;99423.39;2072921;85;21540;-73
2022/08/19 04:33:44;;;;;;;12.20;11.00;;;;;;;21.28;69.76;99427.89;2068112;85;21706;-73
2022/08/19 04:36:45;;;;;;;12.10;10.68;;;;;;;21.53;69.64;99431.14;2062032;85;20969;-73
2022/08/19 04:43:05;;;;;;;12.30;10.50;;;;;;;22.06;69.30;99425.39;2063155;85;21629;-73
2022/08/19 04:46:12;;;;;;;14.15;11.97;;;;;;;22.37;69.03;99431.30;2065366;85;21327;-72
2022/08/19 04:49:14;;;;;;;14.85;12.25;;;;;;;22.68;68.60;99430.13;2066641;85;21075;-72
2022/08/19 04:52:15;;;;;;;14.35;12.05;;;;;;;23.00;68.05;99425.14;2067308;85;21061;-73
2022/08/19 04:55:17;;;;;;;15.63;12.45;;;;;;;23.33;67.35;99427.13;2062884;85;21889;-73
2022/08/19 04:58:18;;;;;;;14.90;11.68;;;;;;;23.57;66.66;99424.75;2064241;85;21021;-75
2022/08/19 05:01:25;;;;;;;16.15;13.00;;;;;;;23.76;66.05;99422.34;2066349;85;21040;-73
2022/08/19 05:04:28;;;;;;;15.78;12.45;;;;;;;23.87;65.52;99430.19;2067033;84;21018;-73
2022/08/19 05:07:30;;;;;;;14.87;12.10;;;;;;;23.84;65.15;99419.09;2066435;85;20969;-72
2022/08/19 05:10:31;;;;;;;15.70;11.97;;;;;;;23.88;64.92;99405.30;2061019;85;21068;-72
2022/08/19 05:13:32;;;;;;;14.93;11.05;;;;;;;24.00;64.70;99392.27;2065135;85;21040;-73
2022/08/19 05:16:33;;;;;;;16.62;12.37;;;;;;;24.12;64.69;99390.63;2066242;85;21053;-73
2022/08/19 05:22:54;;;;;;;19.60;12.43;;;;;;;24.27;63.62;99399.26;2066207;85;21069;-73
2022/08/19 05:25:55;;;;;;;14.95;12.33;;;;;;;24.20;63.71;99402.81;2067607;85;21116;-72
2022/08/19 05:28:56;;;;;;;14.25;11.53;;;;;;;24.25;63.68;99409.59;2063314;85;21022;-73
2022/08/19 05:31:59;;;;;;;14.38;11.30;;;;;;;24.40;63.25;99404.11;2065517;85;20998;-72
2022/08/19 05:35:00;;;;;;;16.32;12.35;;;;;;;24.51;63.18;99409.80;2066827;84;21080;-75
2022/08/19 05:38:05;;;;;;;16.07;11.73;;;;;;;24.67;62.88;99411.12;2069608;85;21072;-73
2022/08/19 05:41:10;;;;;;;18.85;12.10;;;;;;;24.81;62.55;99410.80;2048215;85;21105;-72
2022/08/19 05:44:11;;;;;;;16.67;12.75;;;;;;;25.00;62.25;99415.03;2061171;85;21029;-73
2022/08/19 05:47:14;;;;;;;15.08;12.63;;;;;;;25.11;61.63;99417.96;2063797;85;21049;-73
2022/08/19 05:50:17;;;;;;;18.37;12.23;;;;;;;25.16;61.54;99422.05;2067563;85;21431;-73
2022/08/19 05:53:19;;;;;;;18.95;12.53;;;;;;;25.28;61.29;99414.91;2068875;85;21064;-72
2022/08/19 05:56:20;;;;;;;15.43;11.53;;;;;;;25.35;60.88;99418.69;2063425;85;21030;-73
2022/08/19 05:59:22;;;;;;;14.90;12.03;;;;;;;25.30;60.70;99423.59;2076717;84;21050;-72
2022/08/19 06:02:23;;;;;;;17.05;12.20;;;;;;;25.23;60.76;99421.75;2077234;84;20981;-72
2022/08/19 06:05:24;;;;;;;16.60;11.25;;;;;;;25.26;60.87;99408.42;1996256;87;21180;-72
2022/08/19 06:08:27;;;;;;;16.10;11.78;;;;;;;25.46;60.96;99409.39;2025705;87;21474;-72
2022/08/19 06:11:40;;;;;;;13.88;11.10;;;;;;;25.60;60.80;99415.00;2028296;87;21001;-72
2022/08/19 06:14:41;;;;;;;16.40;11.70;;;;;;;25.71;60.33;99420.06;2037060;86;21571;-72
2022/08/19 06:17:44;;;;;;;20.25;11.55;;;;;;;25.88;59.75;99406.09;2039791;86;21111;-73
2022/08/19 06:20:45;;;;;;;16.48;12.00;;;;;;;25.82;59.91;99409.92;2038873;86;21066;-73
2022/08/19 06:23:48;;;;;;;15.23;12.20;;;;;;;26.05;59.62;99434.77;2020175;87;21283;-72
2022/08/19 06:26:50;;;;;;;14.78;11.20;;;;;;;26.13;59.41;99446.39;1994702;88;21155;-72
2022/08/19 06:29:52;;;;;;;13.32;11.68;;;;;;;26.20;58.76;99449.56;1994031;87;21090;-73
2022/08/19 06:32:53;;;;;;;13.62;11.08;;;;;;;26.18;58.85;99455.83;1994622;87;21099;-72
2022/08/19 06:35:54;;;;;;;13.75;12.03;;;;;;;26.21;58.24;99464.77;2038143;86;21039;-73
2022/08/19 06:39:01;;;;;;;14.05;11.28;;;;;;;26.32;58.27;99458.14;2019748;86;21065;-75
2022/08/19 06:42:05;;;;;;;16.70;11.28;;;;;;;26.58;58.35;99459.27;1988281;87;21098;-73
2022/08/19 06:45:08;;;;;;;13.78;10.80;;;;;;;26.96;58.25;99466.20;1994104;88;21483;-73
2022/08/19 06:48:09;;;;;;;15.75;10.75;;;;;;;27.26;57.47;99475.92;2036179;87;21114;-74
2022/08/19 06:51:10;;;;;;;15.10;11.00;;;;;;;27.46;57.06;99479.72;2042836;86;21018;-73
2022/08/19 06:54:11;;;;;;;13.08;10.40;;;;;;;27.65;56.07;99482.98;2049365;86;21115;-73
2022/08/19 06:57:14;;;;;;;14.15;11.15;;;;;;;27.73;56.28;99494.58;2033375;87;21083;-75
2022/08/19 07:00:16;;;;;;;16.00;11.00;;;;;;;27.81;55.73;99507.58;2035246;87;21043;-72
2022/08/19 07:03:17;;;;;;;16.60;10.35;;;;;;;27.87;55.99;99515.13;2017456;86;20992;-73
2022/08/19 07:06:19;;;;;;;16.05;11.22;;;;;;;27.96;55.49;99517.98;1995783;87;21133;-72
2022/08/19 07:09:21;;;;;;;17.62;10.15;;;;;;;28.10;54.58;99516.95;2005938;87;21087;-72
2022/08/19 07:12:22;;;;;;;18.60;11.50;;;;;;;28.15;54.29;99518.77;2042190;86;21071;-72
2022/08/19 07:15:23;;;;;;;13.65;10.63;;;;;;;28.17;54.07;99519.29;2038168;86;21485;-73
2022/08/19 07:18:25;;;;;;;15.20;9.65;;;;;;;28.38;53.06;99512.39;2039087;86;21074;-74
2022/08/19 07:21:28;;;;;;;15.43;10.60;;;;;;;28.52;54.02;99517.08;2004193;87;21028;-70
2022/08/19 07:24:32;;;;;;;17.90;9.80;;;;;;;29.04;53.72;99511.75;2008195;87;21085;-73
2022/08/19 07:27:34;;;;;;;17.82;9.75;;;;;;;29.22;52.20;99510.00;2007896;87;21646;-73
2022/08/19 07:30:37;;;;;;;14.03;9.18;;;;;;;29.42;52.14;99525.15;2012867;87;21027;-73
2022/08/19 07:33:43;;;;;;;16.82;10.18;;;;;;;29.45;50.75;99529.20;2009157;87;21073;-73
2022/08/19 07:36:45;;;;;;;15.72;8.90;;;;;;;29.57;51.09;99528.69;2005636;87;21119;-74
2022/08/19 07:39:49;;;;;;;14.83;8.58;;;;;;;29.62;49.50;99524.45;2021523;87;21015;-75
2022/08/19 07:42:50;;;;;;;13.90;7.83;;;;;;;29.94;50.32;99526.22;2005709;87;21082;-75
2022/08/19 07:45:55;;;;;;;15.08;8.35;;;;;;;30.53;50.16;99536.54;2035875;86;21025;-74
2022/08/19 07:49:00;;;;;;;12.10;7.78;;;;;;;31.14;49.58;99536.84;2000563;88;21077;-74
2022/08/19 07:52:06;;;;;;;14.23;8.15;;;;;;;31.51;48.14;99540.17;2004134;88;20993;-74
2022/08/19 07:55:10;;;;;;;11.20;7.62;;;;;;;31.87;48.57;99550.82;2007233;87;21086;-74
2022/08/19 07:58:18;;;;;;;12.35;7.40;;;;;;;32.31;47.19;99548.89;2001736;87;21032;-74
2022/08/19 08:01:24;;;;;;;19.35;7.53;;;;;;;32.59;46.39;99536.98;1988720;88;21668;-74
2022/08/19 08:11:07;;;;;;;;;;;;;;;33.32;43.37;99545.66;2067764;85;21034;-76
2022/08/19 08:14:09;;;;;;;10.03;6.72;;;;;;;32.47;43.35;99549.22;2068801;84;20162;-74
2022/08/19 08:17:12;;;;;;;14.55;7.35;;;;;;;31.65;43.72;99560.03;2069352;85;21032;-74
2022/08/19 08:20:14;;;;;;;14.40;7.75;;;;;;;31.25;44.86;99559.25;2066008;85;21588;-73
2022/08/19 08:23:28;;;;;;;10.78;6.28;;;;;;;31.22;45.08;99560.69;2068194;85;21597;-74
2022/08/19 08:26:29;;;;;;;12.30;6.78;;;;;;;31.17;44.80;99558.13;2069809;85;21097;-74
2022/08/19 08:29:31;;;;;;;13.10;6.53;;;;;;;31.22;45.18;99564.80;2069463;84;21043;-75
2022/08/19 08:32:32;;;;;;;14.78;7.83;;;;;;;31.21;44.89;99566.50;2067476;85;21483;-74
2022/08/19 08:35:33;;;;;;;14.20;7.53;;;;;;;31.13;45.37;99569.45;2060226;85;21068;-74
2022/08/19 08:38:36;;;;;;;16.23;6.72;;;;;;;31.22;45.24;99567.54;2066812;85;21018;-75
2022/08/19 08:42:17;;;;;;;12.93;6.87;;;;;;;31.49;45.54;99563.78;2018007;87;21053;-75
2022/08/19 08:45:18;;;;;;;16.87;6.83;;;;;;;31.87;45.54;99563.73;2048561;85;21124;-74
2022/08/19 08:48:34;;;;;;;9.93;6.55;;;;;;;32.45;44.38;99571.23;2022995;85;21052;-74
2022/08/19 08:51:44;;;;;;;12.20;6.12;;;;;;;32.86;43.63;99567.94;2048641;85;21021;-74
2022/08/19 08:54:49;;;;;;;13.60;6.15;;;;;;;33.01;42.99;99567.41;2052293;85;21606;-77
2022/08/19 08:58:01;;;;;;;12.23;6.30;;;;;;;32.94;42.39;99558.82;2052034;85;21038;-75
2022/08/19 09:01:02;;;;;;;9.90;6.37;;;;;;;33.08;42.65;99556.45;2018852;87;21579;-75
2022/08/19 09:04:07;;;;;;;13.32;6.35;;;;;;;33.11;42.42;99557.17;2016338;87;21048;-75
2022/08/19 09:07:46;;;;;;;15.30;6.47;;;;;;;33.32;42.51;99552.53;2063724;85;21660;-74
2022/08/19 09:10:53;;;;;;;43.52;8.15;;;;;;;33.70;42.27;99547.53;2042574;85;21090;-75
2022/08/19 09:14:17;;;;;;;13.85;6.50;;;;;;;34.09;41.62;99541.33;2062963;85;21096;-75
2022/08/19 09:17:33;;;;;;;12.13;6.12;;;;;;;34.07;41.27;99537.55;2066365;85;21136;-75
2022/08/19 09:20:35;;;;;;;10.38;6.35;;;;;;;33.99;40.79;99526.02;2065328;85;21014;-75
2022/08/19 09:23:37;;;;;;;8.73;5.67;;;;;;;34.28;40.32;99527.06;2064368;85;20990;-74
2022/08/19 09:26:38;;;;;;;12.60;6.80;;;;;;;33.98;40.04;99529.90;2068169;85;20989;-74
2022/08/19 09:29:40;;;;;;;11.85;5.75;;;;;;;34.07;40.54;99528.47;2020048;87;21076;-76
2022/08/19 09:32:42;;;;;;;11.03;5.97;;;;;;;34.53;40.22;99543.87;2053506;85;21045;-74
2022/08/19 09:35:43;;;;;;;11.80;5.65;;;;;;;34.93;39.84;99546.02;2011291;87;21067;-75
2022/08/19 09:38:45;;;;;;;14.55;6.58;;;;;;;35.28;39.37;99548.91;2063526;85;21046;-74
2022/08/19 09:41:46;;;;;;;11.03;5.40;;;;;;;35.37;38.05;99544.09;2018717;87;21508;-74
2022/08/19 09:44:47;;;;;;;12.65;5.12;;;;;;;35.29;37.54;99549.16;2018340;87;21041;-75
2022/08/19 09:47:52;;;;;;;10.63;5.67;;;;;;;35.26;37.62;99539.62;2052629;85;21120;-74
2022/08/19 09:50:53;;;;;;;10.38;5.40;;;;;;;35.09;37.08;99540.67;2051606;85;20993;-75
2022/08/19 09:54:01;;;;;;;15.58;5.25;;;;;;;34.81;37.60;99535.80;2050788;85;21040;-74
2022/08/19 09:57:02;;;;;;;10.58;5.60;;;;;;;35.14;37.25;99528.59;2051064;85;21024;-74
2022/08/19 10:00:08;;;;;;;7.60;4.65;;;;;;;35.31;37.66;99525.61;2023242;85;21048;-74
2022/08/19 10:03:11;;;;;;;12.85;4.87;;;;;;;35.52;36.52;99535.09;2028508;85;21658;-74
2022/08/19 10:06:12;;;;;;;12.65;5.12;;;;;;;35.52;36.34;99528.20;2009100;87;21110;-74
2022/08/19 10:09:16;;;;;;;6.45;4.60;;;;;;;35.37;36.16;99533.87;2038089;86;20983;-75
2022/08/19 10:12:17;;;;;;;8.53;4.25;;;;;;;35.42;36.10;99530.05;2038916;86;21102;-74
2022/08/19 10:15:20;;;;;;;9.80;4.35;;;;;;;35.35;34.73;99534.78;2014650;87;21714;-75
2022/08/19 10:18:23;;;;;;;6.55;4.08;;;;;;;35.05;35.21;99528.67;2012096;87;21658;-74
2022/08/19 10:21:29;;;;;;;8.35;4.30;;;;;;;35.15;34.62;99533.77;2044358;86;21065;-75
2022/08/19 10:24:30;;;;;;;8.05;4.20;;;;;;;34.77;33.78;99537.63;2045148;86;21012;-74
2022/08/19 10:27:32;;;;;;;8.33;4.25;;;;;;;34.55;34.73;99536.13;2046133;86;21343;-75
2022/08/19 10:30:35;;;;;;;7.65;4.40;;;;;;;34.57;35.10;99533.01;2015566;87;21047;-74
2022/08/19 10:33:37;;;;;;;8.80;4.62;;;;;;;34.63;34.43;99534.39;2044729;86;21596;-74
2022/08/19 10:36:38;;;;;;;12.53;4.50;;;;;;;34.72;34.73;99533.73;2039599;86;21087;-74
2022/08/19 10:39:40;;;;;;;8.93;4.20;;;;;;;34.95;34.17;99527.78;2042249;86;21505;-74
2022/08/19 10:42:41;;;;;;;12.30;4.55;;;;;;;35.00;34.61;99524.77;2042974;86;21056;-75
2022/08/19 10:45:42;;;;;;;15.95;4.97;;;;;;;35.09;35.15;99521.37;2015786;87;21033;-74
2022/08/19 10:48:44;;;;;;;9.85;4.00;;;;;;;35.12;33.31;99519.88;2015554;87;21028;-75
2022/08/19 10:58:26;;;;;;;8.55;4.42;;;;;;;34.78;33.99;99515.83;2000840;87;22287;-74
2022/08/19 11:01:30;;;;;;;16.27;4.55;;;;;;;34.93;32.79;99519.05;2016422;87;21471;-73
2022/08/19 11:04:33;;;;;;;12.35;4.15;;;;;;;34.77;34.64;99521.09;2015439;87;21379;-73
2022/08/19 11:07:34;;;;;;;11.08;3.98;;;;;;;34.87;34.73;99518.47;2010913;87;21549;-73
2022/08/19 11:10:36;;;;;;;8.05;4.22;;;;;;;34.83;33.88;99515.36;2007927;87;21073;-74
2022/08/19 11:13:40;;;;;;;10.75;4.35;;;;;;;34.61;33.50;99511.91;2004754;87;21487;-74
2022/08/19 11:16:42;;;;;;;9.63;4.30;;;;;;;34.51;34.28;99510.94;2006414;87;20997;-73
2022/08/19 11:19:43;;;;;;;10.72;3.77;;;;;;;34.57;34.29;99523.37;2008316;87;21035;-74
2022/08/19 11:22:44;;;;;;;9.50;4.05;;;;;;;34.74;33.65;99516.27;2003616;87;21077;-74
2022/08/19 11:25:46;;;;;;;4.30;3.60;;;;;;;34.96;33.44;99516.97;2004145;87;21070;-75
2022/08/19 11:28:51;;;;;;;9.45;3.27;;;;;;;34.84;32.54;99508.72;2043190;86;21029;-73
2022/08/19 11:31:52;;;;;;;5.12;3.60;;;;;;;34.67;32.64;99504.23;2041045;86;21059;-74
2022/08/19 11:34:54;;;;;;;7.78;3.60;;;;;;;34.59;33.47;99515.00;2033844;86;21029;-74
2022/08/19 11:37:57;;;;;;;8.38;3.25;;;;;;;34.65;33.62;99518.33;2008543;87;21117;-73
2022/08/19 11:41:02;;;;;;;8.65;3.77;;;;;;;34.66;32.42;99513.05;2006613;87;21014;-74
2022/08/19 11:44:04;;;;;;;7.37;3.40;;;;;;;34.52;31.61;99511.98;2006146;87;20992;-73
2022/08/19 11:47:06;;;;;;;10.38;3.67;;;;;;;34.22;32.11;99509.95;2011002;87;21110;-74
2022/08/19 11:50:09;;;;;;;7.30;3.67;;;;;;;33.96;32.86;99521.20;1992349;87;21007;-74
2022/08/19 11:53:10;;;;;;;11.45;4.12;;;;;;;33.76;33.39;99524.20;2006830;87;21631;-73
2022/08/19 11:56:13;;;;;;;7.12;3.50;;;;;;;33.57;33.64;99534.29;2006697;87;21009;-75
2022/08/19 11:59:15;;;;;;;8.15;3.87;;;;;;;33.47;34.28;99538.19;2007435;87;21069;-73
2022/08/19 12:02:17;;;;;;;7.83;3.77;;;;;;;33.46;34.13;99541.30;2007919;87;21093;-73
2022/08/19 12:05:18;;;;;;;8.68;4.12;;;;;;;33.49;34.79;99537.30;2010220;87;21058;-71
2022/08/19 12:08:20;;;;;;;8.53;4.30;;;;;;;33.81;35.05;99536.93;2016218;87;21070;-71
2022/08/19 12:11:23;;;;;;;6.37;3.60;;;;;;;34.05;35.36;99534.91;2022184;87;21366;-69
2022/08/19 12:14:24;;;;;;;5.42;3.75;;;;;;;34.34;34.87;99535.34;2064946;85;21086;-77
2022/08/19 12:17:26;;;;;;;8.03;4.47;;;;;;;34.50;34.87;99531.38;2064745;85;20955;-71
2022/08/19 12:20:27;;;;;;;6.53;3.75;;;;;;;34.72;35.24;99524.64;2068739;85;21037;-71
2022/08/19 12:23:29;;;;;;;15.00;4.17;;;;;;;34.87;34.39;99517.67;2073343;84;21340;-74
2022/08/19 12:26:31;;;;;;;10.08;3.75;;;;;;;34.95;33.31;99516.76;2072578;85;21000;-71
2022/08/19 12:29:33;;;;;;;10.15;3.60;;;;;;;35.01;33.91;99515.38;2067486;84;20989;-74
2022/08/19 12:32:36;;;;;;;8.95;4.03;;;;;;;35.06;34.08;99507.45;2068219;85;21038;-71
2022/08/19 12:35:46;;;;;;;16.55;4.05;;;;;;;35.11;34.32;99508.03;2065807;85;21079;-72
2022/08/19 12:38:46;;;;;;;10.75;3.67;;;;;;;35.14;34.17;99515.63;2064097;85;21055;-79
2022/08/19 12:41:49;;;;;;;7.72;3.70;;;;;;;35.15;34.03;99517.23;2019435;87;21104;-71
2022/08/19 12:44:51;;;;;;;8.30;3.83;;;;;;;35.24;33.97;99516.52;2030724;86;21141;-72
2022/08/19 12:47:52;;;;;;;7.40;3.30;;;;;;;35.43;34.01;99523.40;2019285;87;21066;-71
2022/08/19 12:50:54;;;;;;;10.82;3.10;;;;;;;35.42;33.38;99518.47;2048455;85;21098;-77
2022/08/19 12:53:55;;;;;;;6.60;3.08;;;;;;;35.36;33.47;99521.20;2014735;87;21092;-71
2022/08/19 12:56:59;;;;;;;9.90;3.35;;;;;;;35.35;33.09;99526.51;2063390;85;21054;-76
2022/08/19 13:00:12;;;;;;;5.37;3.95;;;;;;;35.31;33.13;99526.16;2017441;87;21067;-76
2022/08/19 13:03:13;;;;;;;10.30;3.55;;;;;;;35.28;33.12;99523.52;2017717;87;21077;-72
2022/08/19 13:06:15;;;;;;;9.95;3.83;;;;;;;35.31;33.26;99524.78;2045108;85;21597;-73
2022/08/19 13:09:16;;;;;;;11.38;3.60;;;;;;;35.38;33.36;99524.44;2013315;87;21019;-74
2022/08/19 13:12:20;;;;;;;8.40;4.05;;;;;;;35.33;33.53;99529.37;2073462;84;20942;-73
2022/08/19 13:15:22;;;;;;;12.03;3.37;;;;;;;35.18;33.79;99517.11;2076612;84;21081;-80
2022/08/19 13:18:25;;;;;;;7.58;3.35;;;;;;;35.14;33.52;99514.25;2015195;87;21050;-73
2022/08/19 13:21:29;;;;;;;9.10;3.50;;;;;;;35.12;33.65;99511.61;2074313;84;21481;-72
2022/08/19 13:24:30;;;;;;;9.88;3.10;;;;;;;35.06;33.52;99507.45;2070850;84;21048;-77
2022/08/19 13:27:33;;;;;;;6.83;3.25;;;;;;;34.95;33.36;99511.25;2077564;84;21615;-77
2022/08/19 13:33:54;;;;;;;8.25;3.37;;;;;;;34.94;34.15;99506.86;2073110;84;21017;-74
2022/08/19 13:36:55;;;;;;;9.53;3.47;;;;;;;34.91;34.15;99511.69;2080241;84;21091;-76
2022/08/19 13:39:58;;;;;;;4.47;2.95;;;;;;;34.91;34.73;99513.06;2081105;84;21016;-73
2022/08/19 13:43:01;;;;;;;8.95;3.40;;;;;;;34.93;34.38;99510.20;2074915;84;21106;-74
2022/08/19 13:46:08;;;;;;;8.40;3.65;;;;;;;34.89;34.36;99506.53;2071314;84;21120;-73
2022/08/19 13:49:09;;;;;;;5.85;3.05;;;;;;;34.80;34.50;99512.16;2077644;84;21017;-72
2022/08/19 13:52:10;;;;;;;6.42;2.90;;;;;;;34.69;35.00;99520.65;2075428;84;21166;-73
2022/08/19 13:55:12;;;;;;;6.50;3.17;;;;;;;34.63;35.83;99514.31;2074124;84;21048;-72
2022/08/19 13:58:15;;;;;;;7.58;3.58;;;;;;;34.43;36.64;99513.21;2077423;84;21578;-72
2022/08/19 14:01:22;;;;;;;6.35;2.98;;;;;;;34.26;37.23;99516.38;2017087;87;21292;-75
2022/08/19 14:04:23;;;;;;;9.10;3.30;;;;;;;34.11;36.91;99514.28;2051431;85;20942;-72
2022/08/19 14:07:25;;;;;;;10.60;3.52;;;;;;;34.00;36.32;99518.56;2051015;85;21034;-72
2022/08/19 14:10:28;;;;;;;7.55;2.95;;;;;;;33.86;35.68;99512.77;2021763;87;20985;-72
2022/08/19 14:13:29;;;;;;;12.33;3.42;;;;;;;33.77;35.41;99516.75;2018122;87;21069;-72
2022/08/19 14:16:30;;;;;;;10.08;3.40;;;;;;;33.77;36.41;99511.25;2062678;85;21011;-72
2022/08/19 14:19:31;;;;;;;10.43;3.42;;;;;;;33.66;36.66;99516.34;2048405;85;21013;-72
2022/08/19 14:22:34;;;;;;;5.47;3.20;;;;;;;33.57;37.17;99512.29;2018186;87;21050;-73
2022/08/19 14:25:35;;;;;;;8.43;3.27;;;;;;;33.63;37.44;99509.56;2017911;87;21021;-73
2022/08/19 14:28:39;;;;;;;7.80;3.27;;;;;;;33.50;38.13;99511.98;2055289;85;21018;-75
2022/08/19 14:31:41;;;;;;;7.47;3.20;;;;;;;33.45;37.90;99513.55;2015965;87;20999;-72
2022/08/19 14:34:45;;;;;;;7.62;3.20;;;;;;;33.38;38.05;99504.46;2011552;87;22093;-73
2022/08/19 14:37:46;;;;;;;13.55;3.50;;;;;;;33.23;37.37;99496.81;2065020;85;21041;-74